Time;durP1;ratioP1;P1;durP2;ratioP2;P2;SDS_P1;SDS_P2;PMS_P1;PMS_P2;Temp;Humidity;BMP_temperature;BMP_pressure;BME280_temperature;BME280_humidity;BME280_pressure;Samples;Min_cycle;Max_cycle;Signal;HPM_P1;HPM_P2
2023/10/23 00:02:03;;;;;;;0.00;0.00;;;;;;;;;;5073044;28;20063;-81
2023/10/23 00:04:28;;;;;;;0.00;0.00;;;;;;;;;;5073312;28;20037;-80
2023/10/23 00:06:54;;;;;;;0.00;0.00;;;;;;;;;;5073214;28;20442;-81
2023/10/23 00:09:20;;;;;;;0.00;0.00;;;;;;;;;;5073250;28;20527;-81
2023/10/23 00:11:45;;;;;;;0.00;0.00;;;;;;;;;;5072651;28;20493;-81
2023/10/23 00:14:11;;;;;;;0.00;0.00;;;;;;;;;;5076663;28;20049;-81
2023/10/23 00:16:36;;;;;;;0.00;0.00;;;;;;;;;;5059353;28;20535;-81
2023/10/23 00:19:02;;;;;;;0.00;0.00;;;;;;;;;;5072909;28;20039;-81
2023/10/23 00:21:27;;;;;;;0.00;0.00;;;;;;;;;;5057765;28;20036;-81
2023/10/23 00:23:53;;;;;;;0.00;0.00;;;;;;;;;;5070094;28;20044;-80
2023/10/23 00:26:18;;;;;;;0.00;0.00;;;;;;;;;;5058497;28;20194;-81
2023/10/23 00:28:44;;;;;;;0.00;0.00;;;;;;;;;;5076533;28;20025;-81
2023/10/23 00:31:09;;;;;;;0.00;0.00;;;;;;;;;;5075735;28;20045;-81
2023/10/23 00:33:35;;;;;;;0.00;0.00;;;;;;;;;;5061261;28;20162;-80
2023/10/23 00:36:00;;;;;;;0.00;0.00;;;;;;;;;;5077589;28;20040;-81
2023/10/23 00:38:28;;;;;;;0.00;0.00;;;;;;;;;;5076089;28;20032;-81
2023/10/23 00:40:54;;;;;;;0.00;0.00;;;;;;;;;;5075817;28;20446;-80
2023/10/23 00:43:21;;;;;;;0.00;0.00;;;;;;;;;;5041655;28;20037;-81
2023/10/23 00:45:51;;;;;;;0.00;0.00;;;;;;;;;;5058268;28;20028;-81
2023/10/23 00:48:20;;;;;;;0.00;0.00;;;;;;;;;;5058288;28;20037;-81
2023/10/23 00:50:46;;;;;;;0.00;0.00;;;;;;;;;;5076474;28;20059;-82
2023/10/23 00:53:12;;;;;;;0.00;0.00;;;;;;;;;;5068877;28;20063;-81
2023/10/23 00:55:37;;;;;;;0.00;0.00;;;;;;;;;;5075773;28;20029;-80
2023/10/23 00:58:03;;;;;;;0.00;0.00;;;;;;;;;;5058801;28;20035;-81
2023/10/23 01:00:28;;;;;;;0.00;0.00;;;;;;;;;;5058344;28;20033;-81
2023/10/23 01:02:53;;;;;;;0.00;0.00;;;;;;;;;;5041486;28;20493;-81
2023/10/23 01:05:19;;;;;;;0.00;0.00;;;;;;;;;;5058361;28;20434;-81
2023/10/23 01:07:44;;;;;;;0.00;0.00;;;;;;;;;;5058152;28;20140;-81
2023/10/23 01:10:10;;;;;;;0.00;0.00;;;;;;;;;;5057855;28;20032;-80
2023/10/23 01:12:35;;;;;;;0.00;0.00;;;;;;;;;;5084885;28;20032;-81
2023/10/23 01:15:01;;;;;;;0.00;0.00;;;;;;;;;;5076109;28;20352;-80
2023/10/23 01:17:26;;;;;;;0.00;0.00;;;;;;;;;;5075922;28;20556;-80
2023/10/23 01:19:52;;;;;;;0.00;0.00;;;;;;;;;;5057675;28;20043;-81
2023/10/23 01:22:17;;;;;;;0.00;0.00;;;;;;;;;;5075815;28;20025;-81
2023/10/23 01:24:43;;;;;;;0.00;0.00;;;;;;;;;;5070133;28;20451;-81
2023/10/23 01:27:08;;;;;;;0.00;0.00;;;;;;;;;;5041731;28;20035;-80
2023/10/23 01:29:34;;;;;;;0.00;0.00;;;;;;;;;;5075146;28;20036;-80
2023/10/23 01:31:59;;;;;;;0.00;0.00;;;;;;;;;;5082935;28;20066;-81
2023/10/23 01:34:25;;;;;;;0.00;0.00;;;;;;;;;;5075760;28;20032;-81
2023/10/23 01:36:50;;;;;;;0.00;0.00;;;;;;;;;;5057360;28;20090;-80
2023/10/23 01:39:16;;;;;;;0.00;0.00;;;;;;;;;;5057176;28;20109;-82
2023/10/23 01:41:42;;;;;;;0.00;0.00;;;;;;;;;;5075134;28;20044;-79
2023/10/23 01:44:08;;;;;;;0.00;0.00;;;;;;;;;;5057103;28;20036;-80
2023/10/23 01:46:34;;;;;;;0.00;0.00;;;;;;;;;;5056335;28;20033;-80
2023/10/23 01:48:59;;;;;;;0.00;0.00;;;;;;;;;;5076591;28;20048;-81
2023/10/23 01:51:25;;;;;;;0.00;0.00;;;;;;;;;;5082513;28;20351;-81
2023/10/23 01:53:50;;;;;;;0.00;0.00;;;;;;;;;;5074683;28;20044;-81
2023/10/23 01:56:16;;;;;;;0.00;0.00;;;;;;;;;;5040942;28;20028;-81
2023/10/23 01:58:41;;;;;;;0.00;0.00;;;;;;;;;;5075135;28;20397;-80
2023/10/23 02:01:07;;;;;;;0.00;0.00;;;;;;;;;;5075086;28;20119;-81
2023/10/23 02:03:32;;;;;;;0.00;0.00;;;;;;;;;;5074954;28;20466;-80
2023/10/23 02:05:57;;;;;;;0.00;0.00;;;;;;;;;;5056777;28;20036;-81
2023/10/23 02:08:23;;;;;;;0.00;0.00;;;;;;;;;;5043375;28;20477;-82
2023/10/23 02:10:50;;;;;;;0.10;0.00;;;;;;;;;;5068265;28;20054;-82
2023/10/23 02:13:16;;;;;;;0.00;0.00;;;;;;;;;;5095061;28;20055;-81
2023/10/23 02:15:41;;;;;;;0.00;0.00;;;;;;;;;;5095048;28;20143;-80
2023/10/23 02:18:07;;;;;;;0.00;0.00;;;;;;;;;;5094858;28;20042;-80
2023/10/23 02:20:32;;;;;;;0.00;0.00;;;;;;;;;;5076778;28;20426;-81
2023/10/23 02:22:58;;;;;;;0.00;0.00;;;;;;;;;;5094292;28;20032;-81
2023/10/23 02:25:24;;;;;;;0.00;0.00;;;;;;;;;;5094883;28;20440;-81
2023/10/23 02:27:49;;;;;;;0.00;0.00;;;;;;;;;;5096285;28;20043;-81
2023/10/23 02:30:14;;;;;;;0.00;0.00;;;;;;;;;;5097720;28;20063;-81
2023/10/23 02:32:40;;;;;;;0.00;0.00;;;;;;;;;;5094731;28;20035;-80
2023/10/23 02:35:06;;;;;;;0.00;0.00;;;;;;;;;;5094373;28;20113;-81
2023/10/23 02:37:31;;;;;;;0.00;0.00;;;;;;;;;;5094307;28;20031;-81
2023/10/23 02:39:57;;;;;;;0.00;0.00;;;;;;;;;;5076406;28;20169;-81
2023/10/23 02:42:22;;;;;;;0.00;0.00;;;;;;;;;;5093663;28;20024;-81
2023/10/23 02:44:48;;;;;;;0.00;0.00;;;;;;;;;;5093728;28;20092;-81
2023/10/23 02:47:13;;;;;;;0.00;0.00;;;;;;;;;;5099405;28;20040;-81
2023/10/23 02:49:39;;;;;;;0.00;0.00;;;;;;;;;;5062167;28;20032;-81
2023/10/23 02:52:04;;;;;;;0.00;0.00;;;;;;;;;;5073934;28;20119;-81
2023/10/23 02:54:30;;;;;;;0.00;0.00;;;;;;;;;;5061501;28;20093;-82
2023/10/23 02:56:55;;;;;;;0.00;0.00;;;;;;;;;;5075295;28;20070;-81
2023/10/23 02:59:21;;;;;;;0.00;0.00;;;;;;;;;;5093953;28;20062;-81
2023/10/23 03:01:46;;;;;;;0.00;0.00;;;;;;;;;;5093722;28;20028;-81
2023/10/23 03:04:12;;;;;;;0.00;0.00;;;;;;;;;;5094104;28;20047;-80
2023/10/23 03:06:37;;;;;;;0.00;0.00;;;;;;;;;;5083193;28;20027;-81
2023/10/23 03:09:03;;;;;;;0.00;0.00;;;;;;;;;;5092854;28;20052;-81
2023/10/23 03:11:29;;;;;;;0.00;0.00;;;;;;;;;;5075418;28;20063;-80
2023/10/23 03:13:55;;;;;;;0.00;0.00;;;;;;;;;;5059555;28;20036;-81
2023/10/23 03:16:21;;;;;;;0.00;0.00;;;;;;;;;;5093846;28;20032;-80
2023/10/23 03:18:46;;;;;;;0.00;0.00;;;;;;;;;;5075803;28;20036;-80
2023/10/23 03:21:12;;;;;;;0.00;0.00;;;;;;;;;;5094091;28;20084;-81
2023/10/23 03:23:38;;;;;;;0.00;0.00;;;;;;;;;;5093428;28;20400;-80
2023/10/23 03:26:03;;;;;;;0.00;0.00;;;;;;;;;;5093988;28;20036;-80
2023/10/23 03:28:28;;;;;;;0.00;0.00;;;;;;;;;;5093704;28;20040;-81
2023/10/23 03:30:54;;;;;;;0.00;0.00;;;;;;;;;;5093757;28;20105;-81
2023/10/23 03:33:20;;;;;;;0.00;0.00;;;;;;;;;;5094124;28;20085;-81
2023/10/23 03:35:47;;;;;;;0.00;0.00;;;;;;;;;;5093261;28;20036;-80
2023/10/23 03:38:16;;;;;;;0.00;0.00;;;;;;;;;;5093857;28;20495;-81
2023/10/23 03:40:41;;;;;;;0.00;0.00;;;;;;;;;;5075847;28;20034;-81
2023/10/23 03:43:08;;;;;;;0.00;0.00;;;;;;;;;;5083838;28;20063;-81
2023/10/23 03:45:36;;;;;;;0.00;0.00;;;;;;;;;;5093656;28;20028;-81
2023/10/23 03:48:02;;;;;;;0.00;0.00;;;;;;;;;;5093644;28;20032;-82
2023/10/23 03:50:46;;;;;;;0.00;0.00;;;;;;;;;;5085319;28;20028;-81
2023/10/23 03:53:11;;;;;;;0.28;0.00;;;;;;;;;;5055530;28;20120;-81
2023/10/23 03:55:38;;;;;;;0.00;0.00;;;;;;;;;;5076123;28;20115;-80
2023/10/23 03:58:03;;;;;;;0.00;0.00;;;;;;;;;;5059245;28;20396;-80
2023/10/23 04:00:29;;;;;;;0.00;0.00;;;;;;;;;;5043157;28;20089;-80
2023/10/23 04:02:55;;;;;;;0.00;0.00;;;;;;;;;;5081363;28;20040;-80
2023/10/23 04:05:20;;;;;;;0.00;0.00;;;;;;;;;;5077190;28;20036;-80
2023/10/23 04:07:46;;;;;;;0.00;0.00;;;;;;;;;;5059059;28;20351;-80
2023/10/23 04:10:13;;;;;;;0.00;0.00;;;;;;;;;;5056896;28;20037;-81
2023/10/23 04:12:39;;;;;;;0.00;0.00;;;;;;;;;;5038728;28;20041;-81
2023/10/23 04:15:05;;;;;;;0.00;0.00;;;;;;;;;;5040970;28;20517;-80
2023/10/23 04:17:31;;;;;;;0.00;0.00;;;;;;;;;;5058458;28;20472;-81
2023/10/23 04:19:56;;;;;;;0.00;0.00;;;;;;;;;;5060920;28;20037;-81
2023/10/23 04:22:22;;;;;;;0.00;0.00;;;;;;;;;;5078972;28;20056;-81
2023/10/23 04:24:48;;;;;;;0.00;0.00;;;;;;;;;;5076777;28;20420;-81
2023/10/23 04:27:14;;;;;;;0.00;0.00;;;;;;;;;;5077090;28;20041;-81
2023/10/23 04:29:40;;;;;;;0.00;0.00;;;;;;;;;;5076059;28;20078;-82
2023/10/23 04:32:05;;;;;;;0.00;0.00;;;;;;;;;;5021571;28;20128;-81
2023/10/23 04:34:31;;;;;;;0.00;0.00;;;;;;;;;;5022633;28;20366;-81
2023/10/23 04:36:57;;;;;;;0.00;0.00;;;;;;;;;;5055776;28;20025;-83
2023/10/23 04:39:23;;;;;;;0.00;0.00;;;;;;;;;;5047170;28;20056;-84
2023/10/23 04:41:48;;;;;;;0.00;0.00;;;;;;;;;;5025158;28;20029;-83
2023/10/23 04:44:14;;;;;;;0.00;0.00;;;;;;;;;;5040799;28;20052;-82
2023/10/23 04:46:40;;;;;;;0.10;0.00;;;;;;;;;;5045996;28;20039;-82
2023/10/23 04:49:06;;;;;;;0.00;0.00;;;;;;;;;;5060844;28;20036;-83
2023/10/23 04:51:33;;;;;;;0.00;0.00;;;;;;;;;;5073059;28;20370;-83
2023/10/23 04:53:59;;;;;;;0.00;0.00;;;;;;;;;;5040626;28;20045;-84
2023/10/23 04:56:28;;;;;;;0.00;0.00;;;;;;;;;;5032563;28;20029;-82
2023/10/23 04:58:57;;;;;;;0.00;0.00;;;;;;;;;;5029669;28;20025;-83
2023/10/23 05:21:01;;;;;;;0.00;0.00;;;;;;;;;;5074070;22;20074;-82
2023/10/23 05:47:02;;;;;;;0.00;0.00;;;;;;;;;;4938749;22;20063;-86
2023/10/23 05:49:28;;;;;;;0.00;0.00;;;;;;;;;;5080559;28;20039;-82
2023/10/23 05:58:58;;;;;;;0.00;0.00;;;;;;;;;;5100817;22;20054;-83
2023/10/23 06:07:46;;;;;;;0.00;0.00;;;;;;;;;;5194754;22;20072;-86
2023/10/23 06:13:14;;;;;;;0.00;0.00;;;;;;;;;;5117853;22;21208;-83
2023/10/23 06:15:39;;;;;;;0.00;0.00;;;;;;;;;;5362231;22;20018;-87
2023/10/23 06:26:32;;;;;;;0.00;0.00;;;;;;;;;;5106471;22;20079;-86
2023/10/23 06:55:27;;;;;;;0.00;0.00;;;;;;;;;;4204553;22;20067;-79
2023/10/23 06:57:59;;;;;;;0.00;0.00;;;;;;;;;;5080806;28;20425;-79
2023/10/23 07:00:31;;;;;;;0.00;0.00;;;;;;;;;;5091416;28;20039;-76
2023/10/23 07:03:07;;;;;;;0.00;0.00;;;;;;;;;;5071834;28;20047;-80
2023/10/23 07:05:35;;;;;;;0.00;0.00;;;;;;;;;;5094901;28;20031;-81
2023/10/23 07:17:07;;;;;;;0.00;0.00;;;;;;;;;;4259596;22;20106;-78
2023/10/23 07:19:39;;;;;;;0.00;0.00;;;;;;;;;;5068721;28;20151;-77
2023/10/23 07:22:04;;;;;;;0.00;0.00;;;;;;;;;;5080811;28;20109;-77
2023/10/23 07:24:30;;;;;;;0.00;0.00;;;;;;;;;;5061590;28;20044;-76
2023/10/23 07:26:57;;;;;;;0.00;0.00;;;;;;;;;;5069338;28;20019;-78
2023/10/23 07:29:23;;;;;;;0.00;0.00;;;;;;;;;;5066411;28;20036;-77
2023/10/23 07:38:34;;;;;;;0.00;0.00;;;;;;;;;;5098994;22;20056;-80
2023/10/23 07:41:00;;;;;;;0.00;0.00;;;;;;;;;;5075440;28;20108;-79
2023/10/23 07:43:29;;;;;;;0.00;0.00;;;;;;;;;;5056124;28;20148;-81
2023/10/23 07:45:54;;;;;;;0.00;0.00;;;;;;;;;;5057867;28;20035;-77
2023/10/23 07:48:21;;;;;;;0.00;0.00;;;;;;;;;;5076820;28;20119;-77
2023/10/23 07:50:47;;;;;;;0.00;0.00;;;;;;;;;;5062811;28;20083;-78
2023/10/23 07:53:12;;;;;;;0.00;0.00;;;;;;;;;;5085528;28;20381;-80
2023/10/23 07:55:38;;;;;;;0.00;0.00;;;;;;;;;;5101308;28;20064;-80
2023/10/23 07:58:04;;;;;;;0.00;0.00;;;;;;;;;;5073085;28;20035;-79
2023/10/23 08:00:30;;;;;;;0.00;0.00;;;;;;;;;;5066358;28;20485;-80
2023/10/23 08:03:00;;;;;;;0.00;0.00;;;;;;;;;;5074056;28;20459;-79
2023/10/23 08:05:25;;;;;;;0.00;0.00;;;;;;;;;;5083844;28;20032;-78
2023/10/23 08:08:00;;;;;;;0.00;0.00;;;;;;;;;;5089676;28;20046;-76
2023/10/23 08:10:29;;;;;;;0.00;0.00;;;;;;;;;;5069790;28;20066;-76
2023/10/23 08:12:54;;;;;;;0.00;0.00;;;;;;;;;;5056651;28;20049;-78
2023/10/23 08:15:20;;;;;;;0.00;0.00;;;;;;;;;;5090569;28;20377;-77
2023/10/23 08:21:26;;;;;;;0.00;0.00;;;;;;;;;;5045727;28;20077;-77
2023/10/23 08:24:13;;;;;;;0.00;0.00;;;;;;;;;;5074287;28;20032;-76
2023/10/23 08:42:31;;;;;;;0.00;0.00;;;;;;;;;;4219117;22;20128;-78
2023/10/23 08:44:56;;;;;;;0.00;0.00;;;;;;;;;;5080352;28;20035;-75
2023/10/23 08:47:22;;;;;;;0.00;0.00;;;;;;;;;;5059140;28;20101;-75
2023/10/23 08:49:49;;;;;;;0.05;0.00;;;;;;;;;;5060193;28;20115;-78
2023/10/23 08:52:16;;;;;;;0.00;0.00;;;;;;;;;;5069189;28;20036;-78
2023/10/23 08:54:43;;;;;;;0.00;0.00;;;;;;;;;;5075153;28;20043;-78
2023/10/23 08:57:08;;;;;;;0.00;0.00;;;;;;;;;;5040729;28;20712;-76
2023/10/23 08:59:34;;;;;;;0.00;0.00;;;;;;;;;;5059663;28;20092;-77
2023/10/23 09:01:59;;;;;;;0.00;0.00;;;;;;;;;;5046782;28;20119;-75
2023/10/23 09:04:25;;;;;;;0.00;0.00;;;;;;;;;;5081752;28;20133;-75
2023/10/23 09:06:59;;;;;;;0.00;0.00;;;;;;;;;;5064728;28;20193;-78
2023/10/23 09:09:24;;;;;;;0.00;0.00;;;;;;;;;;5059315;28;20028;-76
2023/10/23 09:11:50;;;;;;;0.00;0.00;;;;;;;;;;5083930;28;20039;-77
2023/10/23 09:14:26;;;;;;;0.00;0.00;;;;;;;;;;5086817;28;20652;-75
2023/10/23 09:26:13;;;;;;;0.00;0.00;;;;;;;;;;5362200;22;20588;-77
2023/10/23 09:37:00;;;;;;;0.00;0.00;;;;;;;;;;5094458;22;20099;-78
2023/10/23 09:39:26;;;;;;;0.00;0.00;;;;;;;;;;5055314;28;20037;-77
2023/10/23 09:41:52;;;;;;;0.00;0.00;;;;;;;;;;5085198;28;20078;-79
2023/10/23 09:44:18;;;;;;;0.00;0.00;;;;;;;;;;5091486;28;20047;-78
2023/10/23 09:46:44;;;;;;;0.00;0.00;;;;;;;;;;5063753;28;20033;-79
2023/10/23 09:49:12;;;;;;;0.00;0.00;;;;;;;;;;5070194;28;20449;-80
2023/10/23 09:52:21;;;;;;;0.00;0.00;;;;;;;;;;5074693;28;20979;-80
2023/10/23 09:54:47;;;;;;;0.00;0.00;;;;;;;;;;5023360;28;20033;-81
2023/10/23 09:57:13;;;;;;;0.00;0.00;;;;;;;;;;5006848;28;20034;-75
2023/10/23 09:59:46;;;;;;;0.00;0.00;;;;;;;;;;5044741;28;20036;-77
2023/10/23 10:02:17;;;;;;;0.00;0.00;;;;;;;;;;5064483;28;20016;-80
2023/10/23 10:11:31;;;;;;;0.00;0.00;;;;;;;;;;5138071;22;20098;-80
2023/10/23 10:13:57;;;;;;;0.00;0.00;;;;;;;;;;5063744;28;20481;-78
2023/10/23 10:16:22;;;;;;;0.00;0.00;;;;;;;;;;5057015;28;20028;-76
2023/10/23 10:18:48;;;;;;;0.00;0.00;;;;;;;;;;5062469;28;20153;-75
2023/10/23 10:21:13;;;;;;;0.00;0.00;;;;;;;;;;5051727;28;20036;-79
2023/10/23 10:23:39;;;;;;;0.00;0.00;;;;;;;;;;5055172;28;20028;-77
2023/10/23 10:32:45;;;;;;;0.00;0.00;;;;;;;;;;5404701;22;20063;-81
2023/10/23 10:35:25;;;;;;;0.00;0.00;;;;;;;;;;5093966;28;20278;-80
2023/10/23 10:37:50;;;;;;;0.00;0.00;;;;;;;;;;5063957;28;20793;-78
2023/10/23 10:40:16;;;;;;;0.00;0.00;;;;;;;;;;5089767;28;20045;-81
2023/10/23 10:42:41;;;;;;;0.00;0.00;;;;;;;;;;5045892;28;20049;-80
2023/10/23 10:45:07;;;;;;;0.00;0.00;;;;;;;;;;5055353;28;20085;-79
2023/10/23 10:47:43;;;;;;;0.00;0.00;;;;;;;;;;5068457;28;20046;-77
2023/10/23 10:50:12;;;;;;;0.00;0.00;;;;;;;;;;5045856;28;20024;-80
2023/10/23 10:52:39;;;;;;;0.00;0.00;;;;;;;;;;5056226;28;20049;-79
2023/10/23 10:55:05;;;;;;;0.00;0.00;;;;;;;;;;5067998;28;20122;-77
2023/10/23 10:57:32;;;;;;;0.00;0.00;;;;;;;;;;5080579;28;20122;-77
2023/10/23 10:59:58;;;;;;;0.00;0.00;;;;;;;;;;5084778;28;20105;-78
2023/10/23 11:02:23;;;;;;;0.00;0.00;;;;;;;;;;5066670;28;20420;-79
2023/10/23 11:04:50;;;;;;;0.00;0.00;;;;;;;;;;5087815;28;20024;-78
2023/10/23 11:07:23;;;;;;;0.00;0.00;;;;;;;;;;5054562;28;20051;-78
2023/10/23 11:09:50;;;;;;;0.00;0.00;;;;;;;;;;5049729;28;20044;-78
2023/10/23 11:12:24;;;;;;;0.00;0.00;;;;;;;;;;5056322;28;20041;-78
2023/10/23 11:14:49;;;;;;;0.00;0.00;;;;;;;;;;5070936;28;20119;-80
2023/10/23 11:17:16;;;;;;;0.10;0.00;;;;;;;;;;5086035;28;20071;-80
2023/10/23 11:19:42;;;;;;;0.00;0.00;;;;;;;;;;5053855;28;20066;-80
2023/10/23 11:22:10;;;;;;;0.00;0.00;;;;;;;;;;5088073;28;20050;-78
2023/10/23 11:24:56;;;;;;;0.00;0.00;;;;;;;;;;5072076;28;20100;-78
2023/10/23 11:27:21;;;;;;;0.00;0.00;;;;;;;;;;5091560;28;20178;-82
2023/10/23 11:29:48;;;;;;;0.00;0.00;;;;;;;;;;5075957;28;20060;-79
2023/10/23 11:32:14;;;;;;;0.00;0.00;;;;;;;;;;5056467;28;20070;-78
2023/10/23 11:34:41;;;;;;;0.00;0.00;;;;;;;;;;5074622;28;20036;-79
2023/10/23 11:37:08;;;;;;;0.00;0.00;;;;;;;;;;5089350;28;20020;-79
2023/10/23 11:39:39;;;;;;;0.00;0.00;;;;;;;;;;5073425;28;20385;-80
2023/10/23 11:42:04;;;;;;;0.00;0.00;;;;;;;;;;5091673;28;20035;-79
2023/10/23 11:44:33;;;;;;;0.00;0.00;;;;;;;;;;5073211;28;20047;-78
2023/10/23 11:46:59;;;;;;;0.00;0.00;;;;;;;;;;5072839;28;20066;-79
2023/10/23 11:49:24;;;;;;;0.00;0.00;;;;;;;;;;5088452;28;20449;-79
2023/10/23 11:51:50;;;;;;;0.00;0.00;;;;;;;;;;5072232;28;20100;-80
2023/10/23 11:54:19;;;;;;;0.00;0.00;;;;;;;;;;5071788;28;20104;-80
2023/10/23 11:56:45;;;;;;;0.00;0.00;;;;;;;;;;5089336;28;20035;-79
2023/10/23 11:59:18;;;;;;;0.00;0.00;;;;;;;;;;5089804;28;20036;-80
2023/10/23 12:01:44;;;;;;;0.00;0.00;;;;;;;;;;5089866;28;20063;-79
2023/10/23 12:04:10;;;;;;;0.00;0.00;;;;;;;;;;5091238;28;20036;-79
2023/10/23 12:06:36;;;;;;;0.00;0.00;;;;;;;;;;5093269;28;20442;-80
2023/10/23 12:09:03;;;;;;;0.00;0.00;;;;;;;;;;5093149;28;20365;-80
2023/10/23 12:11:29;;;;;;;0.00;0.00;;;;;;;;;;5095528;28;20123;-79
2023/10/23 12:13:54;;;;;;;0.00;0.00;;;;;;;;;;5096847;28;20063;-80
2023/10/23 12:16:19;;;;;;;0.00;0.00;;;;;;;;;;5094900;28;20024;-79
2023/10/23 12:18:45;;;;;;;0.00;0.00;;;;;;;;;;5096862;28;20032;-80
2023/10/23 12:21:12;;;;;;;0.00;0.00;;;;;;;;;;5097660;28;20035;-80
2023/10/23 12:23:37;;;;;;;0.00;0.00;;;;;;;;;;5079700;28;20124;-80
2023/10/23 12:26:03;;;;;;;0.00;0.00;;;;;;;;;;5079588;28;20127;-80
2023/10/23 12:28:28;;;;;;;0.00;0.00;;;;;;;;;;5097849;28;20453;-79
2023/10/23 12:30:54;;;;;;;0.00;0.00;;;;;;;;;;5096196;28;20457;-78
2023/10/23 12:33:20;;;;;;;0.00;0.00;;;;;;;;;;5102728;28;20044;-78
2023/10/23 12:35:45;;;;;;;0.00;0.00;;;;;;;;;;5086557;28;20031;-79
2023/10/23 12:38:11;;;;;;;0.00;0.00;;;;;;;;;;5098153;28;20042;-81
2023/10/23 12:40:39;;;;;;;0.00;0.00;;;;;;;;;;5079019;28;20488;-79
2023/10/23 12:43:04;;;;;;;0.00;0.00;;;;;;;;;;5079553;28;20036;-78
2023/10/23 12:45:29;;;;;;;0.00;0.00;;;;;;;;;;5079230;28;20047;-78
2023/10/23 12:47:55;;;;;;;0.00;0.00;;;;;;;;;;5097687;28;20043;-79
2023/10/23 12:50:21;;;;;;;0.00;0.00;;;;;;;;;;5098059;28;20035;-79
2023/10/23 12:52:46;;;;;;;0.00;0.00;;;;;;;;;;5079995;28;20042;-80
2023/10/23 12:55:13;;;;;;;0.00;0.00;;;;;;;;;;5062336;28;20453;-78
2023/10/23 12:57:39;;;;;;;0.00;0.00;;;;;;;;;;5098525;28;20028;-79
2023/10/23 13:00:06;;;;;;;0.00;0.00;;;;;;;;;;5078565;28;20028;-79
2023/10/23 13:02:31;;;;;;;0.00;0.00;;;;;;;;;;5097348;28;20085;-78
2023/10/23 13:04:57;;;;;;;0.00;0.00;;;;;;;;;;5079051;28;20024;-78
2023/10/23 13:07:23;;;;;;;0.00;0.00;;;;;;;;;;5078744;28;20016;-78
2023/10/23 13:09:48;;;;;;;0.00;0.00;;;;;;;;;;5097295;28;20035;-77
2023/10/23 13:12:13;;;;;;;0.00;0.00;;;;;;;;;;5078880;28;20069;-79
2023/10/23 13:14:39;;;;;;;0.00;0.00;;;;;;;;;;5079044;28;20544;-78
2023/10/23 13:17:04;;;;;;;0.00;0.00;;;;;;;;;;5084244;28;20058;-79
2023/10/23 13:19:30;;;;;;;0.00;0.00;;;;;;;;;;5097736;28;20101;-77
2023/10/23 13:21:55;;;;;;;0.00;0.00;;;;;;;;;;5096744;28;20047;-79
2023/10/23 13:24:21;;;;;;;0.00;0.00;;;;;;;;;;5096866;28;20071;-80
2023/10/23 13:26:46;;;;;;;0.00;0.00;;;;;;;;;;5078239;28;20047;-80
2023/10/23 13:29:12;;;;;;;0.00;0.00;;;;;;;;;;5096299;28;20457;-79
2023/10/23 13:31:37;;;;;;;0.00;0.00;;;;;;;;;;5096878;28;20031;-80
2023/10/23 13:34:02;;;;;;;0.00;0.00;;;;;;;;;;5095230;28;20048;-78
2023/10/23 13:36:28;;;;;;;0.00;0.00;;;;;;;;;;5097917;28;20089;-78
2023/10/23 13:38:53;;;;;;;0.00;0.00;;;;;;;;;;5098639;28;20024;-79
2023/10/23 13:41:19;;;;;;;0.00;0.00;;;;;;;;;;5095617;28;20099;-80
2023/10/23 13:43:45;;;;;;;0.00;0.00;;;;;;;;;;5095125;28;20395;-79
2023/10/23 13:46:10;;;;;;;0.00;0.00;;;;;;;;;;5095229;28;20134;-80
2023/10/23 13:48:35;;;;;;;0.00;0.00;;;;;;;;;;5095927;28;20462;-80
2023/10/23 13:51:02;;;;;;;0.00;0.00;;;;;;;;;;5096523;28;20469;-79
2023/10/23 13:53:28;;;;;;;0.00;0.00;;;;;;;;;;5078148;28;20031;-79
2023/10/23 13:55:53;;;;;;;0.00;0.00;;;;;;;;;;5094611;28;20031;-79
2023/10/23 13:58:18;;;;;;;0.00;0.00;;;;;;;;;;5096520;28;20024;-79
2023/10/23 14:00:44;;;;;;;0.00;0.00;;;;;;;;;;5099440;28;20028;-79
2023/10/23 14:03:10;;;;;;;0.00;0.00;;;;;;;;;;5078008;28;20403;-80
2023/10/23 14:05:37;;;;;;;0.00;0.00;;;;;;;;;;5096065;28;20025;-79
2023/10/23 14:08:03;;;;;;;0.00;0.00;;;;;;;;;;5094718;28;20127;-79
2023/10/23 14:10:28;;;;;;;0.00;0.00;;;;;;;;;;5094655;28;20134;-78
2023/10/23 14:12:54;;;;;;;0.00;0.00;;;;;;;;;;5095625;28;20074;-77
2023/10/23 14:15:20;;;;;;;0.00;0.00;;;;;;;;;;5094562;28;20053;-79
2023/10/23 14:17:45;;;;;;;0.00;0.00;;;;;;;;;;5094560;28;20024;-79
2023/10/23 14:20:11;;;;;;;0.00;0.00;;;;;;;;;;5095628;28;20081;-79
2023/10/23 14:22:38;;;;;;;0.00;0.00;;;;;;;;;;5103458;28;20084;-79
2023/10/23 14:25:08;;;;;;;0.00;0.00;;;;;;;;;;5094444;28;20032;-79
2023/10/23 14:27:36;;;;;;;0.00;0.00;;;;;;;;;;5095194;28;20032;-79
2023/10/23 14:30:03;;;;;;;0.00;0.00;;;;;;;;;;5094207;28;20040;-79
2023/10/23 14:32:28;;;;;;;0.00;0.00;;;;;;;;;;5093859;28;20039;-79
2023/10/23 14:34:54;;;;;;;0.00;0.00;;;;;;;;;;5095157;28;20085;-79
2023/10/23 14:37:19;;;;;;;0.00;0.00;;;;;;;;;;5094248;28;20028;-79
2023/10/23 14:39:44;;;;;;;0.00;0.00;;;;;;;;;;5094705;28;20043;-79
2023/10/23 14:42:10;;;;;;;0.00;0.00;;;;;;;;;;5062775;28;20094;-77
2023/10/23 14:44:35;;;;;;;0.00;0.00;;;;;;;;;;5099454;28;20415;-79
2023/10/23 14:47:01;;;;;;;0.00;0.00;;;;;;;;;;5101027;28;20046;-78
2023/10/23 14:49:27;;;;;;;0.00;0.00;;;;;;;;;;5100545;28;20042;-79
2023/10/23 14:51:53;;;;;;;0.00;0.00;;;;;;;;;;5095419;28;20092;-79
2023/10/23 14:54:19;;;;;;;0.00;0.00;;;;;;;;;;5095549;28;20088;-78
2023/10/23 14:56:44;;;;;;;0.00;0.00;;;;;;;;;;5093279;28;20066;-79
2023/10/23 14:59:10;;;;;;;0.00;0.00;;;;;;;;;;5094805;28;20067;-79
2023/10/23 15:01:36;;;;;;;0.00;0.00;;;;;;;;;;5095105;28;20039;-79
2023/10/23 15:04:02;;;;;;;0.00;0.00;;;;;;;;;;5096151;28;20364;-78
2023/10/23 15:06:28;;;;;;;0.00;0.00;;;;;;;;;;5098425;28;20028;-79
2023/10/23 15:08:53;;;;;;;0.00;0.00;;;;;;;;;;5076630;28;20031;-79
2023/10/23 15:11:21;;;;;;;0.00;0.00;;;;;;;;;;5059862;28;20028;-79
2023/10/23 15:13:48;;;;;;;0.00;0.00;;;;;;;;;;5093612;28;20028;-78
2023/10/23 15:16:13;;;;;;;0.00;0.00;;;;;;;;;;5093974;28;20082;-78
2023/10/23 15:18:39;;;;;;;0.00;0.00;;;;;;;;;;5094713;28;20027;-78
2023/10/23 15:21:05;;;;;;;0.00;0.00;;;;;;;;;;5093203;28;20039;-79
2023/10/23 15:23:31;;;;;;;0.00;0.00;;;;;;;;;;5094341;28;20357;-78
2023/10/23 15:25:56;;;;;;;0.00;0.00;;;;;;;;;;5102681;28;20032;-78
2023/10/23 15:28:22;;;;;;;0.00;0.00;;;;;;;;;;5096163;28;20092;-79
2023/10/23 15:30:53;;;;;;;0.00;0.00;;;;;;;;;;5094526;28;20126;-79
2023/10/23 15:33:22;;;;;;;0.00;0.00;;;;;;;;;;5093152;28;20036;-81
2023/10/23 15:35:51;;;;;;;0.00;0.00;;;;;;;;;;5094659;28;20884;-80
2023/10/23 15:38:20;;;;;;;0.00;0.00;;;;;;;;;;5094336;28;20028;-80
2023/10/23 15:40:49;;;;;;;0.00;0.00;;;;;;;;;;5092909;28;20114;-79
2023/10/23 15:43:21;;;;;;;0.00;0.00;;;;;;;;;;5092882;28;20370;-79
2023/10/23 15:45:49;;;;;;;0.00;0.00;;;;;;;;;;5100875;28;20028;-79
2023/10/23 15:48:19;;;;;;;0.00;0.00;;;;;;;;;;5102296;28;20121;-79
2023/10/23 15:50:45;;;;;;;0.00;0.00;;;;;;;;;;5094904;28;20035;-80
2023/10/23 15:53:10;;;;;;;0.00;0.00;;;;;;;;;;5097121;28;20032;-80
2023/10/23 15:55:36;;;;;;;0.00;0.00;;;;;;;;;;5096958;28;20024;-80
2023/10/23 15:58:02;;;;;;;0.00;0.00;;;;;;;;;;5098161;28;20031;-79
2023/10/23 16:00:28;;;;;;;0.00;0.00;;;;;;;;;;5063706;28;20024;-81
2023/10/23 16:02:53;;;;;;;0.00;0.00;;;;;;;;;;5096735;28;20461;-77
2023/10/23 16:05:19;;;;;;;0.00;0.00;;;;;;;;;;5079881;28;20039;-77
2023/10/23 16:07:44;;;;;;;0.00;0.00;;;;;;;;;;5100592;28;20456;-79
2023/10/23 16:10:10;;;;;;;0.00;0.00;;;;;;;;;;5106089;28;20036;-79
2023/10/23 16:12:35;;;;;;;0.00;0.00;;;;;;;;;;5096842;28;20373;-79
2023/10/23 16:15:00;;;;;;;0.00;0.00;;;;;;;;;;5096824;28;20032;-79
2023/10/23 16:17:27;;;;;;;0.00;0.00;;;;;;;;;;5063942;28;20043;-81
2023/10/23 16:19:53;;;;;;;0.00;0.00;;;;;;;;;;5097055;28;20024;-82
2023/10/23 16:22:19;;;;;;;0.00;0.00;;;;;;;;;;5097332;28;20024;-80
2023/10/23 16:24:45;;;;;;;0.00;0.00;;;;;;;;;;5096619;28;20446;-80
2023/10/23 16:27:11;;;;;;;0.00;0.00;;;;;;;;;;5096485;28;20039;-80
2023/10/23 16:29:37;;;;;;;0.00;0.00;;;;;;;;;;5098768;28;20105;-80
2023/10/23 16:32:03;;;;;;;0.00;0.00;;;;;;;;;;5106513;28;20032;-81
2023/10/23 16:34:28;;;;;;;0.00;0.00;;;;;;;;;;5097592;28;20039;-79
2023/10/23 16:36:53;;;;;;;0.00;0.00;;;;;;;;;;5098071;28;20028;-80
2023/10/23 16:39:19;;;;;;;0.00;0.00;;;;;;;;;;5097957;28;20073;-80
2023/10/23 16:41:47;;;;;;;0.00;0.00;;;;;;;;;;5097808;28;20028;-80
2023/10/23 16:44:13;;;;;;;0.00;0.00;;;;;;;;;;5079594;28;20468;-81
2023/10/23 16:46:39;;;;;;;0.00;0.00;;;;;;;;;;5079528;28;20034;-80
2023/10/23 16:49:04;;;;;;;0.00;0.00;;;;;;;;;;5079515;28;20115;-80
2023/10/23 16:51:30;;;;;;;0.00;0.00;;;;;;;;;;5079983;28;20107;-80
2023/10/23 16:53:55;;;;;;;0.00;0.00;;;;;;;;;;5101617;28;20024;-81
2023/10/23 16:56:20;;;;;;;0.00;0.00;;;;;;;;;;5079047;28;20036;-80
2023/10/23 16:58:46;;;;;;;0.00;0.00;;;;;;;;;;5097248;28;20036;-79
2023/10/23 17:01:11;;;;;;;0.00;0.00;;;;;;;;;;5062492;28;20032;-80
2023/10/23 17:03:37;;;;;;;0.00;0.00;;;;;;;;;;5096085;28;20061;-80
2023/10/23 17:06:09;;;;;;;0.00;0.00;;;;;;;;;;5096561;28;20106;-79
2023/10/23 17:08:35;;;;;;;0.00;0.00;;;;;;;;;;5079070;28;20053;-80
2023/10/23 17:11:06;;;;;;;0.00;0.00;;;;;;;;;;5062169;28;20031;-79
2023/10/23 17:13:32;;;;;;;0.00;0.00;;;;;;;;;;5105421;28;20043;-79
2023/10/23 17:15:58;;;;;;;0.00;0.00;;;;;;;;;;5079272;28;20365;-80
2023/10/23 17:18:23;;;;;;;0.00;0.00;;;;;;;;;;5096856;28;20032;-78
2023/10/23 17:20:49;;;;;;;0.00;0.00;;;;;;;;;;5078556;28;20031;-79